Time;durP1;ratioP1;P1;durP2;ratioP2;P2;SDS_P1;SDS_P2;PMS_P1;PMS_P2;Temp;Humidity;BMP_temperature;BMP_pressure;BME280_temperature;BME280_humidity;BME280_pressure;Samples;Min_cycle;Max_cycle;Signal;HPM_P1;HPM_P2
2024/01/19 00:00:17;;;;;;;2.95;1.45;;;-5.70;99.90;;;;;;5014602;28;20630;-76
2024/01/19 00:02:43;;;;;;;11.00;3.72;;;-5.70;99.90;;;;;;5023519;28;20479;-76
2024/01/19 00:05:09;;;;;;;1.20;0.90;;;-5.60;1.00;;;;;;5019454;28;20033;-76
2024/01/19 00:07:35;;;;;;;3.92;2.97;;;-5.50;1.00;;;;;;5025255;28;20045;-77
2024/01/19 00:10:02;;;;;;;1.67;1.63;;;-5.30;1.00;;;;;;5016504;28;20040;-74
2024/01/19 00:12:28;;;;;;;3.75;3.42;;;-5.30;1.00;;;;;;5021120;28;20041;-76
2024/01/19 00:14:54;;;;;;;2.95;2.00;;;-5.10;1.00;;;;;;5023674;28;20033;-75
2024/01/19 00:17:20;;;;;;;2.03;1.90;;;-5.10;1.00;;;;;;5020731;28;20022;-76
2024/01/19 00:19:46;;;;;;;2.80;2.60;;;-5.00;1.00;;;;;;5021723;28;20048;-76
2024/01/19 00:22:12;;;;;;;0.70;0.70;;;-5.00;1.00;;;;;;5022740;28;20025;-76
2024/01/19 00:24:39;;;;;;;4.80;4.40;;;-4.90;1.00;;;;;;5019062;28;20037;-76
2024/01/19 00:27:05;;;;;;;2.72;2.55;;;-4.80;1.00;;;;;;5021983;28;20033;-76
2024/01/19 00:29:31;;;;;;;3.15;2.92;;;-4.70;1.00;;;;;;5016069;28;20036;-76
2024/01/19 00:31:57;;;;;;;1.70;1.60;;;-4.70;1.00;;;;;;5024554;28;20045;-75
2024/01/19 00:34:24;;;;;;;4.65;4.25;;;-4.60;1.00;;;;;;5019730;28;20041;-75
2024/01/19 00:36:50;;;;;;;2.50;2.30;;;-4.50;1.00;;;;;;5021857;28;20046;-76
2024/01/19 00:39:16;;;;;;;3.90;3.00;;;-4.50;1.00;;;;;;5022568;28;20057;-75
2024/01/19 00:41:42;;;;;;;3.42;3.22;;;-4.40;1.00;;;;;;5021023;28;20044;-75
2024/01/19 00:44:09;;;;;;;2.60;2.40;;;-4.40;1.00;;;;;;5019593;28;20034;-74
2024/01/19 00:46:35;;;;;;;4.35;3.95;;;-4.40;1.00;;;;;;5020132;28;20395;-76
2024/01/19 00:49:01;;;;;;;3.03;2.83;;;-4.30;1.00;;;;;;5021220;28;20029;-72
2024/01/19 00:51:27;;;;;;;2.10;2.00;;;-4.30;1.00;;;;;;5023703;28;20041;-75
2024/01/19 00:53:53;;;;;;;7.32;2.13;;;-4.20;1.00;;;;;;5019294;28;20459;-75
2024/01/19 00:56:19;;;;;;;3.28;2.33;;;-4.20;2.90;;;;;;5021851;28;20030;-75
2024/01/19 00:58:46;;;;;;;20.33;4.00;;;-4.10;18.10;;;;;;5020871;28;20037;-75
2024/01/19 01:01:13;;;;;;;2.03;1.90;;;-4.10;19.90;;;;;;5019950;28;20050;-75
2024/01/19 01:03:39;;;;;;;2.58;2.38;;;-4.10;20.60;;;;;;5020834;28;20044;-75
2024/01/19 01:06:05;;;;;;;4.55;3.97;;;-4.00;21.30;;;;;;5017592;28;20033;-75
2024/01/19 01:08:34;;;;;;;1.85;1.75;;;-4.00;22.10;;;;;;5017820;28;20049;-75
2024/01/19 01:11:01;;;;;;;6.10;2.65;;;-4.00;21.40;;;;;;5027862;28;20032;-75
2024/01/19 01:13:27;;;;;;;0.77;0.77;;;-4.10;14.80;;;;;;5020280;28;20061;-75
2024/01/19 01:15:54;;;;;;;5.75;3.33;;;-4.20;1.00;;;;;;5029375;28;20033;-77
2024/01/19 01:18:20;;;;;;;3.42;2.20;;;-4.20;1.00;;;;;;5024128;28;20026;-76
2024/01/19 01:20:48;;;;;;;3.67;2.10;;;-4.30;1.00;;;;;;5024175;28;20037;-75
2024/01/19 01:23:14;;;;;;;1.48;1.05;;;-4.40;1.00;;;;;;5020811;28;20053;-74
2024/01/19 01:25:41;;;;;;;9.48;3.28;;;-4.40;1.00;;;;;;5021739;28;20036;-76
2024/01/19 01:28:07;;;;;;;3.13;2.83;;;-4.50;1.00;;;;;;5023669;28;20049;-73
2024/01/19 01:30:33;;;;;;;3.25;2.85;;;-4.60;1.00;;;;;;5019526;28;20030;-75
2024/01/19 01:32:59;;;;;;;2.83;2.17;;;-4.70;1.00;;;;;;5021822;28;20068;-76
2024/01/19 01:35:25;;;;;;;1.63;1.52;;;-4.80;1.00;;;;;;5018768;28;20036;-75
2024/01/19 01:37:51;;;;;;;1.52;1.42;;;-4.90;1.00;;;;;;5022861;28;20057;-76
2024/01/19 01:40:18;;;;;;;3.25;1.90;;;-5.00;1.00;;;;;;5020661;28;20045;-75
2024/01/19 01:42:44;;;;;;;0.68;0.68;;;-5.10;1.00;;;;;;5023506;28;20036;-75
2024/01/19 01:45:11;;;;;;;7.80;2.83;;;-5.20;1.00;;;;;;5017700;28;20033;-76
2024/01/19 01:47:37;;;;;;;0.45;0.45;;;-5.20;1.00;;;;;;5020416;28;20029;-76
2024/01/19 01:50:04;;;;;;;0.47;0.47;;;-5.20;1.00;;;;;;5016924;28;20466;-76
2024/01/19 01:52:31;;;;;;;0.55;0.55;;;-5.20;1.00;;;;;;5020395;28;20030;-76
2024/01/19 01:54:57;;;;;;;1.00;0.93;;;-5.20;1.00;;;;;;5022468;28;20049;-76
2024/01/19 01:57:25;;;;;;;0.68;0.52;;;-5.20;1.00;;;;;;5015960;28;20867;-75
2024/01/19 01:59:53;;;;;;;0.95;0.85;;;-5.20;1.00;;;;;;5022684;28;20022;-75
2024/01/19 02:02:20;;;;;;;1.13;1.13;;;-5.20;1.00;;;;;;5018220;28;20033;-76
2024/01/19 02:04:46;;;;;;;1.35;1.25;;;-5.10;1.00;;;;;;5021464;28;20498;-75
2024/01/19 02:07:12;;;;;;;2.25;2.08;;;-5.10;1.00;;;;;;5020687;28;20443;-75
2024/01/19 02:09:39;;;;;;;2.75;2.55;;;-5.00;1.00;;;;;;5022163;28;20395;-76
2024/01/19 02:12:06;;;;;;;4.13;1.27;;;-5.00;1.00;;;;;;5020467;28;20030;-74
2024/01/19 02:14:32;;;;;;;1.00;0.88;;;-4.90;1.00;;;;;;5018049;28;20030;-75
2024/01/19 02:16:59;;;;;;;1.80;1.67;;;-4.90;1.00;;;;;;5024319;28;20037;-75
2024/01/19 02:19:25;;;;;;;2.33;2.13;;;-4.80;1.00;;;;;;5015203;28;20073;-76
2024/01/19 02:21:51;;;;;;;1.80;1.70;;;-4.70;1.00;;;;;;5019313;28;20026;-76
2024/01/19 02:24:20;;;;;;;3.40;2.25;;;-4.70;1.00;;;;;;5018002;28;20047;-76
2024/01/19 02:26:47;;;;;;;2.38;2.17;;;-4.70;1.00;;;;;;5021385;28;20379;-75
2024/01/19 02:29:13;;;;;;;0.57;0.57;;;-4.60;1.00;;;;;;5033465;28;20072;-75
2024/01/19 02:31:39;;;;;;;0.75;0.75;;;-4.60;1.00;;;;;;5021644;28;20041;-75
2024/01/19 02:34:05;;;;;;;0.20;0.20;;;-4.60;1.00;;;;;;5021242;28;20387;-74
2024/01/19 02:36:32;;;;;;;1.30;1.25;;;-4.60;1.00;;;;;;5021956;28;20053;-76
2024/01/19 02:38:58;;;;;;;0.28;0.28;;;-4.50;1.00;;;;;;5018809;28;20434;-75
2024/01/19 02:41:24;;;;;;;1.17;0.95;;;-4.50;1.00;;;;;;5018177;28;20198;-75
2024/01/19 02:43:50;;;;;;;5.20;1.92;;;-4.50;1.00;;;;;;5025412;28;20061;-75
2024/01/19 02:46:19;;;;;;;1.27;1.20;;;-4.50;1.00;;;;;;5017844;28;20307;-75
2024/01/19 02:48:45;;;;;;;0.95;0.95;;;-4.40;1.00;;;;;;5025298;28;20104;-75
2024/01/19 02:51:12;;;;;;;3.95;3.65;;;-4.40;1.00;;;;;;5020114;28;20026;-76
2024/01/19 02:53:38;;;;;;;0.38;0.38;;;-4.50;1.00;;;;;;5023559;28;20041;-76
2024/01/19 02:56:04;;;;;;;3.50;3.20;;;-4.50;1.00;;;;;;5025760;28;20467;-75
2024/01/19 02:58:31;;;;;;;0.57;0.57;;;-4.50;1.00;;;;;;5018405;28;20030;-75
2024/01/19 03:00:59;;;;;;;0.90;0.90;;;-4.50;1.00;;;;;;5024375;28;20041;-77
2024/01/19 03:03:25;;;;;;;1.55;1.45;;;-4.50;1.00;;;;;;5024300;28;20249;-76
2024/01/19 03:05:51;;;;;;;7.28;1.90;;;-4.50;1.00;;;;;;5025388;28;20034;-76
2024/01/19 03:08:21;;;;;;;1.75;1.65;;;-4.50;1.00;;;;;;5020339;28;20033;-76
2024/01/19 03:10:47;;;;;;;3.55;3.25;;;-4.50;1.00;;;;;;5025242;28;20263;-76
2024/01/19 03:13:14;;;;;;;11.05;2.67;;;-4.60;1.00;;;;;;5025339;28;20037;-75
2024/01/19 03:15:40;;;;;;;5.55;2.30;;;-4.60;1.00;;;;;;5023695;28;20025;-76
2024/01/19 03:18:06;;;;;;;3.53;3.15;;;-4.80;1.00;;;;;;5022115;28;20034;-74
2024/01/19 03:20:32;;;;;;;5.35;2.75;;;-4.90;1.00;;;;;;5025997;28;20033;-76
2024/01/19 03:22:58;;;;;;;4.57;4.18;;;-5.00;1.00;;;;;;5020738;28;20046;-77
2024/01/19 03:25:25;;;;;;;1.85;1.40;;;-5.10;1.00;;;;;;5023717;28;20060;-76
2024/01/19 03:27:52;;;;;;;0.65;0.63;;;-5.20;1.00;;;;;;5026313;28;20041;-76
2024/01/19 03:30:18;;;;;;;1.85;1.75;;;-5.30;1.00;;;;;;5023343;28;20414;-77
2024/01/19 03:32:44;;;;;;;1.42;1.05;;;-5.40;99.90;;;;;;5029829;28;20042;-76
2024/01/19 03:35:10;;;;;;;1.65;1.27;;;-5.50;99.90;;;;;;5023948;28;20045;-74
2024/01/19 03:37:36;;;;;;;2.53;2.33;;;-5.50;99.90;;;;;;5023852;28;20050;-77
2024/01/19 03:40:06;;;;;;;2.67;2.47;;;-5.60;99.90;;;;;;5024028;28;20049;-76
2024/01/19 03:42:32;;;;;;;5.00;2.50;;;-5.60;99.90;;;;;;5023471;28;20482;-77
2024/01/19 03:44:58;;;;;;;2.03;1.83;;;-5.60;99.90;;;;;;5024594;28;20037;-76
2024/01/19 03:47:24;;;;;;;1.27;1.20;;;-5.70;99.90;;;;;;5020174;28;20057;-77
2024/01/19 03:49:50;;;;;;;3.13;0.77;;;-5.70;99.90;;;;;;5025597;28;20044;-76
2024/01/19 03:52:18;;;;;;;0.82;0.75;;;-5.60;99.90;;;;;;5027436;28;20045;-76
2024/01/19 03:54:44;;;;;;;0.98;0.98;;;-5.50;99.90;;;;;;5021933;28;20057;-76
2024/01/19 03:57:10;;;;;;;3.53;3.10;;;-5.50;99.90;;;;;;5024989;28;20026;-75
2024/01/19 03:59:36;;;;;;;7.88;3.60;;;-5.50;1.00;;;;;;5023479;28;20041;-76
2024/01/19 04:02:05;;;;;;;1.88;1.77;;;-5.50;1.00;;;;;;5026253;28;20490;-77
2024/01/19 04:04:32;;;;;;;2.13;1.95;;;-5.50;99.90;;;;;;5023371;28;20040;-76
2024/01/19 04:06:58;;;;;;;2.90;2.75;;;-5.50;99.90;;;;;;5023450;28;20040;-77
2024/01/19 04:09:24;;;;;;;1.02;1.00;;;-5.60;99.90;;;;;;5023994;28;20037;-75
2024/01/19 04:11:50;;;;;;;2.60;2.40;;;-5.60;99.90;;;;;;5023438;28;20509;-75
2024/01/19 04:14:16;;;;;;;0.20;0.20;;;-5.60;99.90;;;;;;5022870;28;20041;-76
2024/01/19 04:16:42;;;;;;;1.42;1.33;;;-5.70;99.90;;;;;;5024736;28;20061;-77
2024/01/19 04:19:09;;;;;;;0.75;0.75;;;-5.80;99.90;;;;;;5016725;28;20038;-77
2024/01/19 04:21:35;;;;;;;0.20;0.20;;;-5.90;99.90;;;;;;5022696;28;20372;-77
2024/01/19 04:24:02;;;;;;;3.80;3.03;;;-6.00;99.90;;;;;;5026330;28;20048;-76
2024/01/19 04:26:28;;;;;;;1.77;1.05;;;-6.10;99.90;;;;;;5021165;28;20037;-77
2024/01/19 04:28:55;;;;;;;0.63;0.63;;;-6.10;99.90;;;;;;5019365;28;20042;-77
2024/01/19 04:31:22;;;;;;;4.80;3.40;;;-6.10;99.90;;;;;;5055623;28;20037;-77
2024/01/19 04:33:48;;;;;;;1.48;1.40;;;-6.20;99.90;;;;;;5021780;28;20052;-77
2024/01/19 04:36:14;;;;;;;2.58;2.38;;;-6.20;99.90;;;;;;5019476;28;20045;-74
2024/01/19 04:38:40;;;;;;;1.40;1.30;;;-6.30;99.90;;;;;;5018834;28;20045;-77
2024/01/19 04:41:06;;;;;;;4.38;3.03;;;-6.30;99.90;;;;;;5026792;28;20049;-77
2024/01/19 04:43:32;;;;;;;2.28;2.17;;;-6.40;99.90;;;;;;5027112;28;20041;-77
2024/01/19 04:45:59;;;;;;;1.63;1.52;;;-6.40;99.90;;;;;;5021509;28;20030;-77
2024/01/19 04:48:25;;;;;;;3.58;2.53;;;-6.50;99.90;;;;;;5021458;28;20049;-76
2024/01/19 04:50:51;;;;;;;4.00;3.70;;;-6.50;99.90;;;;;;5022204;28;20053;-76
2024/01/19 04:53:17;;;;;;;2.95;2.80;;;-6.50;99.90;;;;;;5027010;28;20046;-76
2024/01/19 04:55:43;;;;;;;3.03;2.75;;;-6.50;99.90;;;;;;5022693;28;20034;-77
2024/01/19 04:58:10;;;;;;;2.45;2.25;;;-6.50;99.90;;;;;;5026689;28;20029;-76
2024/01/19 05:00:36;;;;;;;1.60;1.50;;;-6.50;99.90;;;;;;5020399;28;20029;-77
2024/01/19 05:03:03;;;;;;;9.43;2.40;;;-6.60;99.90;;;;;;5025390;28;20029;-77
2024/01/19 05:05:29;;;;;;;1.13;1.13;;;-6.60;99.90;;;;;;5024183;28;21225;-77
2024/01/19 05:07:56;;;;;;;1.42;1.33;;;-6.70;99.90;;;;;;5024120;28;20044;-77
2024/01/19 05:10:22;;;;;;;0.20;0.20;;;-6.70;99.90;;;;;;5021858;28;20050;-77
2024/01/19 05:12:49;;;;;;;3.72;2.60;;;-6.80;99.90;;;;;;5022515;28;20037;-77
2024/01/19 05:15:15;;;;;;;3.22;2.88;;;-6.90;99.90;;;;;;5026171;28;20040;-74
2024/01/19 05:17:41;;;;;;;1.45;1.05;;;-7.00;99.90;;;;;;5052585;28;20025;-77
2024/01/19 05:20:08;;;;;;;1.27;1.15;;;-7.00;99.90;;;;;;5021659;28;20038;-76
2024/01/19 05:22:34;;;;;;;1.35;1.25;;;-7.10;99.90;;;;;;5024429;28;20097;-76
2024/01/19 05:25:02;;;;;;;2.13;2.03;;;-7.20;99.90;;;;;;5023270;28;20467;-76
2024/01/19 05:27:29;;;;;;;4.32;1.77;;;-7.20;99.90;;;;;;5018124;28;20405;-77
2024/01/19 05:29:55;;;;;;;2.13;1.65;;;-7.30;99.90;;;;;;5019310;28;20458;-76
2024/01/19 05:32:21;;;;;;;3.28;2.88;;;-7.30;99.90;;;;;;5016166;28;20045;-77
2024/01/19 05:34:47;;;;;;;2.72;1.15;;;-7.40;99.90;;;;;;5024675;28;20427;-77
2024/01/19 05:37:13;;;;;;;0.60;0.60;;;-7.40;99.90;;;;;;5026145;28;20060;-75
2024/01/19 05:39:39;;;;;;;1.63;1.55;;;-7.40;99.90;;;;;;5024984;28;20044;-77
2024/01/19 05:42:06;;;;;;;2.67;2.47;;;-7.50;99.90;;;;;;5017772;28;20026;-75
2024/01/19 05:44:32;;;;;;;1.50;1.40;;;-7.40;99.90;;;;;;5023410;28;20037;-75
2024/01/19 05:46:58;;;;;;;2.72;2.50;;;-7.50;99.90;;;;;;5021338;28;20033;-75
2024/01/19 05:49:24;;;;;;;1.70;1.42;;;-7.60;99.90;;;;;;5018003;28;20033;-75
2024/01/19 05:51:51;;;;;;;1.45;1.35;;;-7.60;99.90;;;;;;5024737;28;20029;-77
2024/01/19 05:54:18;;;;;;;4.95;4.10;;;-7.60;99.90;;;;;;5017502;28;20025;-73
2024/01/19 05:56:44;;;;;;;0.82;0.82;;;-7.60;99.90;;;;;;5024780;28;20486;-79
2024/01/19 05:59:10;;;;;;;1.15;0.90;;;-7.70;99.90;;;;;;5019025;28;20036;-76
2024/01/19 06:01:36;;;;;;;2.72;2.63;;;-7.70;99.90;;;;;;5024326;28;20259;-76
2024/01/19 06:04:03;;;;;;;1.65;1.55;;;-7.70;99.90;;;;;;5021270;28;20481;-77
2024/01/19 06:06:29;;;;;;;2.40;2.17;;;-7.80;99.90;;;;;;5038276;28;20034;-77
2024/01/19 06:08:55;;;;;;;1.55;1.45;;;-7.80;99.90;;;;;;5026299;28;20030;-76
2024/01/19 06:11:21;;;;;;;2.15;2.05;;;-7.80;99.90;;;;;;5022845;28;20029;-74
2024/01/19 06:13:49;;;;;;;0.93;0.93;;;-7.80;99.90;;;;;;5021539;28;20033;-75
2024/01/19 06:16:15;;;;;;;1.15;1.05;;;-7.80;99.90;;;;;;5053428;28;20034;-75
2024/01/19 06:18:41;;;;;;;1.02;1.02;;;-7.80;99.90;;;;;;5021742;28;20030;-77
2024/01/19 06:21:11;;;;;;;3.33;3.03;;;-7.80;99.90;;;;;;5024276;28;20029;-77
2024/01/19 06:23:38;;;;;;;5.85;4.47;;;-7.80;99.90;;;;;;5021643;28;20120;-77
2024/01/19 06:26:10;;;;;;;4.10;3.88;;;-7.90;99.90;;;;;;5017342;28;20050;-78
2024/01/19 06:28:37;;;;;;;3.38;3.17;;;-7.90;99.90;;;;;;5017698;28;20029;-77
2024/01/19 06:31:05;;;;;;;1.17;1.17;;;-8.00;99.90;;;;;;5022835;28;20029;-77
2024/01/19 06:33:31;;;;;;;1.33;1.10;;;-8.00;99.90;;;;;;5028565;28;20022;-78
2024/01/19 06:35:57;;;;;;;0.57;0.57;;;-8.00;99.90;;;;;;5027411;28;20033;-77
2024/01/19 06:38:24;;;;;;;2.08;1.98;;;-8.10;99.30;;;;;;5026831;28;20054;-77
2024/01/19 06:40:50;;;;;;;2.03;1.92;;;-8.10;94.30;;;;;;5025150;28;20030;-77
2024/01/19 06:43:18;;;;;;;2.72;2.58;;;-8.20;88.30;;;;;;5023334;28;20029;-76
2024/01/19 06:45:44;;;;;;;1.38;1.38;;;-8.30;81.00;;;;;;5024378;28;20491;-77
2024/01/19 06:48:10;;;;;;;1.65;1.55;;;-8.30;85.20;;;;;;5029565;28;20044;-77
2024/01/19 06:50:36;;;;;;;4.03;3.42;;;-8.30;89.00;;;;;;5030030;28;20048;-75
2024/01/19 06:53:04;;;;;;;4.20;3.90;;;-8.30;85.70;;;;;;5030168;28;20473;-75
2024/01/19 06:55:30;;;;;;;2.55;2.17;;;-8.40;82.40;;;;;;5021225;28;20037;-77
2024/01/19 06:57:56;;;;;;;2.58;2.35;;;-8.40;82.70;;;;;;5030225;28;20055;-77
2024/01/19 07:00:22;;;;;;;0.95;0.95;;;-8.40;85.90;;;;;;5021545;28;20034;-77
2024/01/19 07:02:48;;;;;;;3.58;3.13;;;-8.40;84.40;;;;;;5026946;28;20060;-77
2024/01/19 07:05:16;;;;;;;1.70;1.50;;;-8.40;80.70;;;;;;5027412;28;20105;-75
2024/01/19 07:07:42;;;;;;;3.65;3.40;;;-8.40;72.30;;;;;;5025351;28;20033;-77
2024/01/19 07:10:08;;;;;;;1.40;1.30;;;-8.50;66.10;;;;;;5024608;28;20053;-75
2024/01/19 07:12:34;;;;;;;4.55;3.17;;;-8.50;57.30;;;;;;5027292;28;20060;-76
2024/01/19 07:15:01;;;;;;;0.20;0.20;;;-8.50;58.80;;;;;;5022619;28;20045;-76
2024/01/19 07:17:27;;;;;;;5.18;2.17;;;-8.60;55.40;;;;;;5024468;28;20037;-76
2024/01/19 07:19:53;;;;;;;2.80;1.60;;;-8.60;54.30;;;;;;5017337;28;20032;-76
2024/01/19 07:22:19;;;;;;;0.57;0.57;;;-8.60;49.70;;;;;;5026875;28;20052;-76
2024/01/19 07:24:45;;;;;;;0.30;0.30;;;-8.70;48.30;;;;;;5026037;28;20033;-77
2024/01/19 07:27:12;;;;;;;4.70;1.85;;;-8.70;47.90;;;;;;5025781;28;20880;-76
2024/01/19 07:29:38;;;;;;;0.98;0.95;;;-8.70;45.10;;;;;;5020951;28;20121;-76
2024/01/19 07:32:04;;;;;;;1.45;1.35;;;-8.60;53.40;;;;;;5022546;28;20057;-76
2024/01/19 07:34:30;;;;;;;2.10;2.00;;;-8.60;61.60;;;;;;5022497;28;20044;-76
2024/01/19 07:36:57;;;;;;;0.38;0.38;;;-8.60;69.60;;;;;;5027497;28;20049;-76
2024/01/19 07:39:26;;;;;;;6.30;1.08;;;-8.60;66.50;;;;;;5025564;28;20424;-76
2024/01/19 07:41:52;;;;;;;0.65;0.65;;;-8.60;63.10;;;;;;5022927;28;20053;-76
2024/01/19 07:44:18;;;;;;;2.85;2.65;;;-8.60;55.30;;;;;;5022504;28;20042;-76
2024/01/19 07:46:45;;;;;;;0.85;0.85;;;-8.60;55.40;;;;;;5023656;28;20029;-76
2024/01/19 07:49:11;;;;;;;4.97;1.48;;;-8.60;52.20;;;;;;5024334;28;20033;-76
2024/01/19 07:51:38;;;;;;;1.58;1.48;;;-8.60;54.80;;;;;;5019474;28;20033;-76
2024/01/19 07:54:04;;;;;;;1.90;1.63;;;-8.60;59.70;;;;;;5024773;28;20451;-76
2024/01/19 07:56:30;;;;;;;4.70;4.30;;;-8.50;69.00;;;;;;5028442;28;20052;-76
2024/01/19 07:58:56;;;;;;;6.03;4.78;;;-8.40;77.80;;;;;;5058467;28;20114;-76
2024/01/19 08:01:22;;;;;;;3.80;3.60;;;-8.30;86.50;;;;;;5023313;28;20057;-76
2024/01/19 08:03:48;;;;;;;1.98;1.88;;;-8.20;92.30;;;;;;5017466;28;20034;-76
2024/01/19 08:06:15;;;;;;;0.77;0.77;;;-8.20;96.80;;;;;;5022712;28;20038;-76
2024/01/19 08:08:41;;;;;;;1.50;0.75;;;-8.10;99.90;;;;;;5033447;28;20029;-76
2024/01/19 08:11:07;;;;;;;4.05;3.72;;;-8.00;99.90;;;;;;5021364;28;20455;-76
2024/01/19 08:13:33;;;;;;;4.35;3.38;;;-7.90;99.90;;;;;;5021428;28;20486;-76
2024/01/19 08:16:00;;;;;;;1.42;1.38;;;-7.70;99.90;;;;;;5028460;28;20034;-76
2024/01/19 08:18:33;;;;;;;2.17;2.08;;;-7.70;99.90;;;;;;5019759;28;20363;-76
2024/01/19 08:21:03;;;;;;;0.70;0.70;;;-7.50;99.90;;;;;;5026535;28;20049;-76
2024/01/19 08:23:30;;;;;;;2.45;1.80;;;-7.30;99.90;;;;;;5018763;28;20056;-76
2024/01/19 08:25:56;;;;;;;1.13;1.13;;;-7.20;99.90;;;;;;5062696;28;20053;-75
2024/01/19 08:28:22;;;;;;;1.35;1.25;;;-7.00;99.90;;;;;;5060267;28;20059;-76
2024/01/19 08:30:49;;;;;;;2.42;2.33;;;-6.80;99.90;;;;;;5060870;28;20024;-75
2024/01/19 08:33:15;;;;;;;4.28;3.20;;;-6.70;99.90;;;;;;5063850;28;20039;-75
2024/01/19 08:35:42;;;;;;;6.18;5.47;;;-6.50;99.90;;;;;;5067035;28;20028;-75
2024/01/19 08:38:08;;;;;;;2.90;2.72;;;-6.40;99.90;;;;;;5056508;28;20053;-76
2024/01/19 08:40:34;;;;;;;2.65;2.55;;;-6.20;99.90;;;;;;5057383;28;20450;-76
2024/01/19 08:43:00;;;;;;;4.60;2.90;;;-6.00;99.90;;;;;;5060016;28;20032;-76
2024/01/19 08:45:29;;;;;;;2.17;2.00;;;-5.80;99.90;;;;;;5062759;28;20045;-76
2024/01/19 08:47:56;;;;;;;0.25;0.25;;;-5.70;99.90;;;;;;5052297;28;20385;-76
2024/01/19 08:50:23;;;;;;;0.68;0.68;;;-5.50;99.90;;;;;;5061291;28;20043;-75
2024/01/19 08:52:49;;;;;;;3.80;3.45;;;-5.40;99.90;;;;;;5064399;28;20031;-75
2024/01/19 08:55:15;;;;;;;4.50;3.58;;;-5.10;99.90;;;;;;5063624;28;20045;-75
2024/01/19 08:57:42;;;;;;;6.13;3.83;;;-4.90;1.00;;;;;;5063402;28;20029;-75
2024/01/19 09:00:09;;;;;;;2.25;2.13;;;-4.70;1.00;;;;;;5062422;28;20037;-75
2024/01/19 09:02:35;;;;;;;2.28;1.67;;;-4.40;1.00;;;;;;5061767;28;20036;-76
2024/01/19 09:05:01;;;;;;;2.15;2.00;;;-4.20;1.00;;;;;;5056935;28;20047;-76
2024/01/19 09:07:27;;;;;;;1.73;1.63;;;-4.00;1.00;;;;;;5059679;28;20029;-76
2024/01/19 09:09:53;;;;;;;3.80;3.00;;;-3.70;25.80;;;;;;5068501;28;20051;-75
2024/01/19 09:12:19;;;;;;;9.52;3.67;;;-3.50;63.90;;;;;;5069074;28;20029;-76
2024/01/19 09:14:46;;;;;;;4.70;3.47;;;-3.40;94.50;;;;;;5059926;28;20048;-75
2024/01/19 09:17:12;;;;;;;10.07;5.13;;;-3.20;99.90;;;;;;5057818;28;20029;-76
2024/01/19 09:19:39;;;;;;;5.65;1.60;;;-3.00;99.90;;;;;;5054111;28;20032;-74
2024/01/19 09:22:05;;;;;;;2.85;2.65;;;-2.80;99.90;;;;;;5064682;28;20029;-75
2024/01/19 09:24:32;;;;;;;5.90;4.20;;;-2.60;99.90;;;;;;5062299;28;20024;-75
2024/01/19 09:26:59;;;;;;;2.30;2.15;;;-2.50;99.90;;;;;;5057774;28;20458;-75
2024/01/19 09:29:25;;;;;;;3.03;2.78;;;-2.30;99.90;;;;;;5058030;28;20040;-76
2024/01/19 09:31:52;;;;;;;3.45;3.15;;;-2.20;99.90;;;;;;5066513;28;20040;-75
2024/01/19 09:34:18;;;;;;;7.22;5.75;;;-2.10;99.90;;;;;;5059214;28;20044;-75
2024/01/19 09:36:44;;;;;;;1.67;1.58;;;-2.10;99.90;;;;;;5056487;28;20486;-76
2024/01/19 09:39:11;;;;;;;5.13;2.42;;;-2.10;99.90;;;;;;5057946;28;20393;-77
2024/01/19 09:42:06;;;;;;;3.33;3.13;;;-2.10;87.20;;;;;;5055920;28;20043;-76
2024/01/19 09:44:36;;;;;;;2.60;2.40;;;-2.00;37.10;;;;;;5059225;28;20041;-76
2024/01/19 09:47:18;;;;;;;5.65;3.95;;;-2.00;49.50;;;;;;5058058;28;20040;-76
2024/01/19 09:49:52;;;;;;;;;;;-1.80;13.10;;;;;;5059277;28;20454;-76
2024/01/19 09:52:38;;;;;;;2.78;2.58;;;-1.70;27.30;;;;;;5067109;28;19923;-76
2024/01/19 09:55:05;;;;;;;6.10;2.45;;;-1.40;99.90;;;;;;5021469;28;20057;-76
2024/01/19 09:57:34;;;;;;;2.67;2.50;;;-1.20;99.90;;;;;;5058673;28;20040;-77
2024/01/19 10:00:00;;;;;;;3.35;3.05;;;-1.00;99.90;;;;;;5058925;28;20037;-77
2024/01/19 10:02:28;;;;;;;3.30;2.00;;;-0.70;99.90;;;;;;5055227;28;20056;-77
2024/01/19 10:04:58;;;;;;;4.75;2.22;;;-0.60;99.90;;;;;;5060144;28;20033;-76
2024/01/19 10:07:25;;;;;;;2.93;2.77;;;-0.50;99.90;;;;;;5060088;28;20049;-76
2024/01/19 10:09:52;;;;;;;2.90;2.70;;;-0.40;99.90;;;;;;5055211;28;20047;-76
2024/01/19 10:12:20;;;;;;;5.68;3.95;;;-0.40;99.90;;;;;;5061175;28;20029;-76
2024/01/19 10:14:46;;;;;;;5.13;4.60;;;-0.40;99.90;;;;;;5057542;28;20048;-74
2024/01/19 10:17:14;;;;;;;3.53;3.30;;;-0.40;99.90;;;;;;5062068;28;20041;-75
2024/01/19 10:19:42;;;;;;;4.78;3.05;;;-0.40;99.90;;;;;;5058701;28;20047;-76
2024/01/19 10:22:26;;;;;;;6.32;5.43;;;-0.30;99.90;;;;;;5067114;28;20067;-77
2024/01/19 10:25:08;;;;;;;3.55;3.28;;;-0.30;99.90;;;;;;5061426;28;20497;-76
2024/01/19 10:27:47;;;;;;;5.28;4.88;;;-0.20;99.90;;;;;;5066990;28;20048;-77
2024/01/19 10:30:16;;;;;;;3.05;2.85;;;-0.20;99.90;;;;;;5066865;28;20032;-76
2024/01/19 10:32:44;;;;;;;9.88;4.43;;;-0.30;99.90;;;;;;5065432;28;20033;-76
2024/01/19 10:35:19;;;;;;;5.18;4.82;;;-0.30;99.90;;;;;;5067532;28;20052;-77
2024/01/19 10:37:46;;;;;;;5.28;4.82;;;-0.30;99.90;;;;;;5061963;28;20055;-77
2024/01/19 10:40:14;;;;;;;10.38;5.78;;;-0.50;1.00;;;;;;5062088;28;20039;-76
2024/01/19 10:42:42;;;;;;;3.50;2.35;;;-0.70;1.00;;;;;;5062247;28;20493;-76
2024/01/19 10:45:18;;;;;;;3.83;3.50;;;-0.70;1.00;;;;;;5059945;28;20516;-76
2024/01/19 10:47:45;;;;;;;5.88;4.03;;;-0.60;1.00;;;;;;5060546;28;20037;-76
2024/01/19 10:50:16;;;;;;;2.85;2.65;;;-0.60;1.00;;;;;;5068294;28;20036;-76
2024/01/19 10:52:52;;;;;;;3.35;1.98;;;-0.60;1.00;;;;;;5060611;28;20024;-77
2024/01/19 10:55:29;;;;;;;3.92;3.63;;;-0.50;1.00;;;;;;5058935;28;20051;-77
2024/01/19 10:58:04;;;;;;;4.85;2.65;;;-0.30;24.40;;;;;;5068554;28;20032;-76
2024/01/19 11:00:31;;;;;;;2.65;2.50;;;-0.20;55.30;;;;;;5062590;28;20052;-77
2024/01/19 11:02:59;;;;;;;5.53;4.18;;;-0.30;1.80;;;;;;5060097;28;20045;-76
2024/01/19 11:05:26;;;;;;;1.60;1.40;;;-0.20;30.80;;;;;;5062115;28;20048;-77
2024/01/19 11:07:54;;;;;;;4.15;3.85;;;0.00;67.80;;;;;;5066878;28;20044;-76
2024/01/19 11:10:21;;;;;;;3.83;3.30;;;0.10;99.90;;;;;;5061934;28;20033;-76
2024/01/19 11:12:56;;;;;;;3.92;3.67;;;0.20;99.90;;;;;;5059029;28;20024;-76
2024/01/19 11:15:35;;;;;;;5.53;4.88;;;0.20;99.90;;;;;;5055910;28;20052;-75
2024/01/19 11:18:04;;;;;;;8.93;8.05;;;0.20;99.90;;;;;;5057253;28;20370;-75
2024/01/19 11:20:31;;;;;;;4.57;4.07;;;0.20;99.90;;;;;;5061754;28;20378;-76
2024/01/19 11:22:58;;;;;;;2.47;2.20;;;0.20;99.90;;;;;;5062166;28;20056;-75
2024/01/19 11:25:36;;;;;;;3.08;2.83;;;0.10;56.30;;;;;;5060519;28;20037;-76
2024/01/19 11:28:30;;;;;;;4.00;3.45;;;0.10;1.00;;;;;;5057260;28;20041;-76
2024/01/19 11:31:18;;;;;;;4.13;3.75;;;0.10;1.00;;;;;;5061873;28;20033;-76
2024/01/19 11:33:45;;;;;;;5.15;4.68;;;0.00;1.00;;;;;;5063599;28;20044;-75
2024/01/19 11:36:38;;;;;;;2.13;1.98;;;0.00;1.00;;;;;;5060437;28;20457;-74
2024/01/19 11:39:05;;;;;;;6.60;4.80;;;0.00;1.00;;;;;;5067388;28;20044;-76
2024/01/19 11:41:32;;;;;;;3.13;2.83;;;0.10;1.00;;;;;;5060185;28;20389;-76
2024/01/19 11:43:59;;;;;;;2.88;2.67;;;0.00;1.00;;;;;;5061465;28;20481;-75
2024/01/19 11:46:50;;;;;;;2.75;2.35;;;0.10;30.90;;;;;;5067317;28;20032;-76
2024/01/19 11:49:45;;;;;;;3.67;3.35;;;0.10;1.00;;;;;;5066835;28;20491;-74
2024/01/19 11:52:17;;;;;;;3.47;3.17;;;0.10;1.00;;;;;;5058060;28;20048;-75
2024/01/19 11:54:44;;;;;;;5.10;3.58;;;0.10;1.00;;;;;;5060962;28;20155;-75
2024/01/19 11:57:22;;;;;;;22.38;7.10;;;0.10;1.00;;;;;;5061108;28;20032;-76
2024/01/19 11:59:48;;;;;;;4.60;4.30;;;0.10;1.00;;;;;;5059576;28;20029;-75
2024/01/19 12:02:31;;;;;;;10.23;7.20;;;0.00;1.00;;;;;;5064793;28;20524;-75
2024/01/19 12:05:02;;;;;;;5.35;3.97;;;0.00;1.00;;;;;;5063388;28;20044;-75
2024/01/19 12:07:29;;;;;;;3.92;3.63;;;0.00;1.00;;;;;;5058694;28;20041;-76
2024/01/19 12:10:12;;;;;;;2.22;2.13;;;-0.10;99.90;;;;;;5057830;28;20048;-76
2024/01/19 12:12:39;;;;;;;4.32;3.38;;;0.00;99.90;;;;;;5069997;28;20024;-76
2024/01/19 12:15:08;;;;;;;4.13;3.38;;;0.10;1.00;;;;;;5057429;28;20052;-75
2024/01/19 12:17:36;;;;;;;2.47;2.38;;;0.10;1.00;;;;;;5071316;28;20047;-76
2024/01/19 12:20:03;;;;;;;1.40;1.35;;;0.20;1.00;;;;;;5061435;28;20037;-75
2024/01/19 12:22:31;;;;;;;8.07;5.05;;;0.30;1.00;;;;;;5061371;28;20040;-77
2024/01/19 12:25:13;;;;;;;2.58;2.40;;;0.50;1.00;;;;;;5076141;28;20073;-74
2024/01/19 12:27:40;;;;;;;4.45;4.15;;;0.60;70.70;;;;;;5074351;28;20043;-75
2024/01/19 12:30:14;;;;;;;3.58;3.25;;;0.70;93.80;;;;;;5072871;28;20035;-77
2024/01/19 12:32:41;;;;;;;6.47;3.65;;;0.80;55.60;;;;;;5066604;28;20048;-77
2024/01/19 12:35:08;;;;;;;4.75;3.63;;;0.70;1.00;;;;;;5063393;28;20040;-77
2024/01/19 12:37:35;;;;;;;3.75;3.42;;;0.70;1.00;;;;;;5058333;28;20056;-76
2024/01/19 12:40:17;;;;;;;6.15;4.35;;;0.80;1.00;;;;;;5067469;28;20382;-77
2024/01/19 12:42:44;;;;;;;4.72;4.35;;;0.70;99.90;;;;;;5061733;28;20473;-78
2024/01/19 12:45:15;;;;;;;4.35;3.47;;;0.50;99.90;;;;;;5072362;28;20036;-79
2024/01/19 12:47:42;;;;;;;3.80;3.58;;;0.40;99.90;;;;;;5057759;28;20048;-78
2024/01/19 12:50:09;;;;;;;3.80;3.45;;;0.40;99.90;;;;;;5060781;28;20029;-78
2024/01/19 12:52:35;;;;;;;11.98;10.57;;;0.40;99.90;;;;;;5061791;28;20028;-78
2024/01/19 12:55:03;;;;;;;14.13;8.07;;;0.30;1.00;;;;;;5059927;28;20035;-78